Terminal Aerodrome Forecast
Issued by NWS

Current Version | Previous Version | Text Only | Print | Product List | Glossary On
Versions: 1 2 3 4 5 6 7 8 9 10 11 12 13 14 15 16 17 18 19 20 21 22 23 24 25
000
FTAK31 PANC 261124
TAFAIL
TAF
PAIL 261124Z 2612/2712 VRB03KT P6SM VCSH SCT035 OVC050
     FM261400 35004KT 6SM -RA OVC035
      TEMPO 2616/2620 5SM -RA OVC025
     FM262200 24007KT P6SM -SHRA BKN035 OVC050=

USA.gov is the U.S. government's official web portal to all federal, state and local government web resources and services.